CFG4MG EDDL-LEPA
Flight info
| Callsign | CFG4MG |
|---|---|
| Flight time | 0h 40m |
| Altitude | FL350 |
| Route | MODR2T MODRU Z283 SOPOK ROUSY GTQ POGOL LASAT MOROK GILIR GEVEA INCUS BALSI RETNO TUPOX MTG DIVKO VATIR PIVUS BODEQ VERSO LUNIK LUNI4M |
| Aircraft | A321/M-SDE3FGHIRWY/LB1 |
Departure
| Time | 2026-05-01 09:58 |
|---|---|
| Airport | Düsseldorf Airport (EDDL) |
Arrival
| Time | 2026-05-01 10:39 |
|---|---|
| Airport | Palma de Mallorca Airport (LEPA) |
| Time | Latitude | Longitude | Altitude | Speed | Heading |
|---|---|---|---|---|---|
| 2026-05-01 09:42 | 51.28692 | 6.77494 | 118 ft | 0 kts | 322° |
| 2026-05-01 09:47 | 51.28691 | 6.77496 | 114 ft | 2 kts | 323° |
| 2026-05-01 09:47 | 51.28669 | 6.77518 | 114 ft | 4 kts | 338° |
| 2026-05-01 09:48 | 51.28644 | 6.77527 | 114 ft | 4 kts | 5° |
| 2026-05-01 09:48 | 51.28620 | 6.77516 | 114 ft | 4 kts | 42° |
| 2026-05-01 09:48 | 51.28613 | 6.77503 | 114 ft | 0 kts | 54° |
| 2026-05-01 09:51 | 51.28622 | 6.77523 | 115 ft | 6 kts | 53° |
| 2026-05-01 09:51 | 51.28656 | 6.77598 | 115 ft | 9 kts | 54° |
| 2026-05-01 09:51 | 51.28662 | 6.77699 | 117 ft | 12 kts | 81° |
| 2026-05-01 09:51 | 51.28714 | 6.77831 | 115 ft | 15 kts | 53° |
| 2026-05-01 09:52 | 51.28774 | 6.77958 | 115 ft | 14 kts | 53° |
| 2026-05-01 09:52 | 51.28831 | 6.78078 | 115 ft | 13 kts | 53° |
| 2026-05-01 09:52 | 51.28890 | 6.78203 | 115 ft | 15 kts | 53° |
| 2026-05-01 09:52 | 51.28943 | 6.78277 | 117 ft | 9 kts | 16° |
| 2026-05-01 09:53 | 51.28990 | 6.78237 | 116 ft | 8 kts | 323° |
| 2026-05-01 09:53 | 51.29035 | 6.78204 | 117 ft | 7 kts | 354° |
| 2026-05-01 09:53 | 51.29050 | 6.78204 | 116 ft | 0 kts | 0° |
| 2026-05-01 09:53 | 51.29051 | 6.78204 | 116 ft | 0 kts | 0° |
| 2026-05-01 09:54 | 51.29053 | 6.78204 | 117 ft | 2 kts | 0° |
| 2026-05-01 09:54 | 51.29100 | 6.78206 | 116 ft | 9 kts | 2° |
| 2026-05-01 09:55 | 51.29172 | 6.78229 | 115 ft | 11 kts | 27° |
| 2026-05-01 09:55 | 51.29237 | 6.78344 | 113 ft | 19 kts | 52° |
| 2026-05-01 09:55 | 51.29316 | 6.78512 | 116 ft | 19 kts | 53° |
| 2026-05-01 09:55 | 51.29413 | 6.78570 | 118 ft | 10 kts | 357° |
| 2026-05-01 09:56 | 51.29432 | 6.78569 | 118 ft | 1 kts | 357° |
| 2026-05-01 09:56 | 51.29480 | 6.78564 | 118 ft | 13 kts | 354° |
| 2026-05-01 09:56 | 51.29512 | 6.78457 | 115 ft | 9 kts | 240° |
| 2026-05-01 09:56 | 51.29493 | 6.78412 | 116 ft | 0 kts | 233° |
| 2026-05-01 09:57 | 51.29490 | 6.78405 | 116 ft | 5 kts | 232° |
| 2026-05-01 09:58 | 51.29336 | 6.78092 | 117 ft | 72 kts | 233° |
| 2026-05-01 09:58 | 51.28909 | 6.77187 | 115 ft | 130 kts | 232° |
| 2026-05-01 09:58 | 51.28265 | 6.75884 | 275 ft | 156 kts | 226° |
| 2026-05-01 09:58 | 51.27655 | 6.74534 | 1058 ft | 147 kts | 227° |
| 2026-05-01 09:59 | 51.27046 | 6.73197 | 1579 ft | 155 kts | 226° |
| 2026-05-01 09:59 | 51.26368 | 6.71752 | 1970 ft | 170 kts | 226° |
| 2026-05-01 09:59 | 51.25626 | 6.70185 | 2443 ft | 183 kts | 226° |
| 2026-05-01 09:59 | 51.24851 | 6.68549 | 2936 ft | 188 kts | 225° |
| 2026-05-01 10:00 | 51.24064 | 6.66848 | 3478 ft | 192 kts | 226° |
| 2026-05-01 10:00 | 51.23503 | 6.64879 | 4011 ft | 207 kts | 258° |
| 2026-05-01 10:00 | 51.23806 | 6.62580 | 4513 ft | 223 kts | 297° |
| 2026-05-01 10:00 | 51.24919 | 6.60814 | 5081 ft | 231 kts | 322° |
| 2026-05-01 10:01 | 51.26215 | 6.59251 | 5585 ft | 239 kts | 321° |
| 2026-05-01 10:01 | 51.27593 | 6.57583 | 5997 ft | 260 kts | 322° |
| 2026-05-01 10:01 | 51.29086 | 6.55781 | 6469 ft | 278 kts | 322° |
| 2026-05-01 10:01 | 51.30653 | 6.53861 | 7052 ft | 292 kts | 322° |
| 2026-05-01 10:02 | 51.32262 | 6.51830 | 7764 ft | 299 kts | 321° |
| 2026-05-01 10:02 | 51.33890 | 6.49722 | 8527 ft | 303 kts | 321° |
| 2026-05-01 10:02 | 51.35530 | 6.47582 | 9289 ft | 307 kts | 321° |
| 2026-05-01 10:02 | 51.37196 | 6.45408 | 10068 ft | 312 kts | 321° |
| 2026-05-01 10:03 | 51.38693 | 6.42887 | 10745 ft | 316 kts | 301° |
| 2026-05-01 10:03 | 51.39540 | 6.39681 | 11425 ft | 315 kts | 278° |
| 2026-05-01 10:03 | 51.39585 | 6.36216 | 12125 ft | 312 kts | 256° |
| 2026-05-01 10:03 | 51.38847 | 6.33013 | 12843 ft | 307 kts | 234° |
| 2026-05-01 10:04 | 51.37459 | 6.30485 | 13569 ft | 302 kts | 213° |
| 2026-05-01 10:04 | 51.35631 | 6.28898 | 14262 ft | 300 kts | 198° |
| 2026-05-01 10:04 | 51.33683 | 6.27684 | 14898 ft | 303 kts | 198° |
| 2026-05-01 10:04 | 51.31704 | 6.26463 | 15414 ft | 312 kts | 198° |
| 2026-05-01 10:05 | 51.29602 | 6.25218 | 15535 ft | 333 kts | 197° |
| 2026-05-01 10:05 | 51.27366 | 6.23921 | 15666 ft | 353 kts | 197° |
| 2026-05-01 10:05 | 51.25002 | 6.22558 | 15829 ft | 370 kts | 197° |
| 2026-05-01 10:05 | 51.22558 | 6.21144 | 16269 ft | 378 kts | 197° |
| 2026-05-01 10:06 | 51.20073 | 6.19692 | 16819 ft | 383 kts | 198° |
| 2026-05-01 10:06 | 51.17567 | 6.18225 | 17389 ft | 386 kts | 198° |
| 2026-05-01 10:06 | 51.15040 | 6.16749 | 17904 ft | 390 kts | 198° |
| 2026-05-01 10:06 | 51.12482 | 6.15256 | 18450 ft | 394 kts | 198° |
| 2026-05-01 10:07 | 51.09904 | 6.13753 | 18943 ft | 397 kts | 198° |
| 2026-05-01 10:07 | 51.07306 | 6.12240 | 19422 ft | 400 kts | 198° |
| 2026-05-01 10:07 | 51.04687 | 6.10714 | 19884 ft | 404 kts | 198° |
| 2026-05-01 10:07 | 51.02069 | 6.09093 | 20346 ft | 409 kts | 203° |
| 2026-05-01 10:08 | 50.97130 | 6.04434 | 21264 ft | 417 kts | 210° |
| 2026-05-01 10:08 | 50.94666 | 6.01996 | 21718 ft | 420 kts | 210° |
| 2026-05-01 10:08 | 50.92145 | 5.99624 | 22153 ft | 423 kts | 208° |
| 2026-05-01 10:09 | 50.89565 | 5.97373 | 22603 ft | 427 kts | 206° |
| 2026-05-01 10:09 | 50.86926 | 5.95178 | 23061 ft | 430 kts | 206° |
| 2026-05-01 10:09 | 50.84266 | 5.93000 | 23502 ft | 433 kts | 206° |
| 2026-05-01 10:09 | 50.81581 | 5.90794 | 23926 ft | 437 kts | 206° |
| 2026-05-01 10:10 | 50.78893 | 5.88540 | 24289 ft | 440 kts | 207° |
| 2026-05-01 10:10 | 50.76204 | 5.86239 | 24658 ft | 442 kts | 207° |
| 2026-05-01 10:10 | 50.70792 | 5.81540 | 25429 ft | 447 kts | 208° |
| 2026-05-01 10:11 | 50.68064 | 5.79171 | 25801 ft | 449 kts | 207° |
| 2026-05-01 10:11 | 50.65321 | 5.76802 | 26169 ft | 452 kts | 207° |
| 2026-05-01 10:11 | 50.62531 | 5.74534 | 26534 ft | 453 kts | 202° |
| 2026-05-01 10:11 | 50.59557 | 5.72926 | 26889 ft | 453 kts | 192° |
| 2026-05-01 10:12 | 50.56456 | 5.72104 | 27236 ft | 453 kts | 183° |
| 2026-05-01 10:12 | 50.53315 | 5.72069 | 27567 ft | 453 kts | 174° |
| 2026-05-01 10:12 | 50.47050 | 5.73241 | 28265 ft | 457 kts | 171° |
| 2026-05-01 10:13 | 50.43888 | 5.73850 | 28620 ft | 459 kts | 171° |
| 2026-05-01 10:13 | 50.40725 | 5.74454 | 28947 ft | 461 kts | 171° |
| 2026-05-01 10:13 | 50.37540 | 5.75057 | 29339 ft | 461 kts | 171° |
| 2026-05-01 10:14 | 50.31210 | 5.76256 | 30279 ft | 458 kts | 171° |
| 2026-05-01 10:14 | 50.28052 | 5.76858 | 30684 ft | 457 kts | 171° |
| 2026-05-01 10:14 | 50.24936 | 5.77602 | 31073 ft | 454 kts | 165° |
| 2026-05-01 10:14 | 50.21897 | 5.78890 | 31440 ft | 453 kts | 162° |
| 2026-05-01 10:15 | 50.18878 | 5.80246 | 31834 ft | 452 kts | 162° |
| 2026-05-01 10:15 | 50.15860 | 5.81594 | 32215 ft | 451 kts | 162° |
| 2026-05-01 10:15 | 50.12853 | 5.82930 | 32600 ft | 450 kts | 162° |
| 2026-05-01 10:16 | 40.77946 | 3.21115 | 35111 ft | 454 kts | 161° |
| 2026-05-01 10:17 | 40.75022 | 3.22669 | 35209 ft | 453 kts | 161° |
| 2026-05-01 10:17 | 40.66373 | 3.27410 | 35224 ft | 449 kts | 161° |
| 2026-05-01 10:18 | 40.57714 | 3.32007 | 35226 ft | 448 kts | 161° |
| 2026-05-01 10:19 | 40.51918 | 3.35045 | 35226 ft | 449 kts | 161° |
| 2026-05-01 10:19 | 40.46089 | 3.38079 | 35142 ft | 452 kts | 164° |
| 2026-05-01 10:20 | 40.39991 | 3.39500 | 33890 ft | 443 kts | 181° |
| 2026-05-01 10:20 | 40.36917 | 3.39647 | 33144 ft | 445 kts | 181° |
| 2026-05-01 10:20 | 40.33827 | 3.39810 | 32409 ft | 446 kts | 181° |
| 2026-05-01 10:20 | 40.30731 | 3.39984 | 31689 ft | 447 kts | 181° |
| 2026-05-01 10:21 | 40.27620 | 3.40164 | 31005 ft | 450 kts | 180° |
| 2026-05-01 10:21 | 40.21350 | 3.40528 | 29545 ft | 454 kts | 180° |
| 2026-05-01 10:21 | 40.18200 | 3.40706 | 28724 ft | 456 kts | 180° |
| 2026-05-01 10:22 | 40.11853 | 3.41066 | 26991 ft | 457 kts | 180° |
| 2026-05-01 10:22 | 40.05571 | 3.41433 | 25699 ft | 449 kts | 180° |
| 2026-05-01 10:23 | 40.02467 | 3.41613 | 25056 ft | 445 kts | 180° |
| 2026-05-01 10:23 | 39.96339 | 3.41954 | 23810 ft | 438 kts | 180° |
| 2026-05-01 10:23 | 39.93313 | 3.42121 | 23095 ft | 434 kts | 180° |
| 2026-05-01 10:24 | 39.87322 | 3.42455 | 21607 ft | 430 kts | 180° |
| 2026-05-01 10:24 | 39.81384 | 3.42789 | 20122 ft | 427 kts | 179° |
| 2026-05-01 10:25 | 39.75486 | 3.43070 | 18698 ft | 421 kts | 184° |
| 2026-05-01 10:25 | 39.70078 | 3.40763 | 17143 ft | 410 kts | 217° |
| 2026-05-01 10:26 | 39.68021 | 3.38263 | 16390 ft | 405 kts | 232° |
| 2026-05-01 10:26 | 39.66570 | 3.35164 | 15646 ft | 402 kts | 244° |
| 2026-05-01 10:26 | 39.64098 | 3.28715 | 14209 ft | 398 kts | 244° |
| 2026-05-01 10:27 | 39.61670 | 3.22416 | 13201 ft | 381 kts | 243° |
| 2026-05-01 10:27 | 39.59362 | 3.16450 | 12502 ft | 360 kts | 243° |
| 2026-05-01 10:28 | 39.58261 | 3.13607 | 12246 ft | 349 kts | 243° |
| 2026-05-01 10:28 | 39.56154 | 3.08173 | 11748 ft | 328 kts | 243° |
| 2026-05-01 10:28 | 39.55145 | 3.05573 | 11500 ft | 319 kts | 243° |
| 2026-05-01 10:29 | 39.53213 | 3.00569 | 11015 ft | 304 kts | 243° |
| 2026-05-01 10:29 | 39.52287 | 2.98151 | 10775 ft | 296 kts | 243° |
| 2026-05-01 10:30 | 39.50508 | 2.93482 | 10290 ft | 284 kts | 243° |
| 2026-05-01 10:30 | 39.48778 | 2.88937 | 9807 ft | 281 kts | 243° |
| 2026-05-01 10:31 | 39.47059 | 2.84431 | 9200 ft | 278 kts | 243° |
| 2026-05-01 10:31 | 39.45304 | 2.80009 | 8418 ft | 276 kts | 241° |
| 2026-05-01 10:32 | 39.43605 | 2.75584 | 7638 ft | 275 kts | 244° |
| 2026-05-01 10:32 | 39.42787 | 2.73358 | 7251 ft | 275 kts | 244° |
| 2026-05-01 10:32 | 39.41136 | 2.68912 | 6494 ft | 274 kts | 244° |
| 2026-05-01 10:33 | 39.39490 | 2.64484 | 5666 ft | 274 kts | 244° |
| 2026-05-01 10:33 | 39.38731 | 2.59791 | 4822 ft | 273 kts | 285° |
| 2026-05-01 10:34 | 39.39586 | 2.57646 | 4404 ft | 269 kts | 311° |
| 2026-05-01 10:34 | 39.40823 | 2.55833 | 3993 ft | 269 kts | 312° |
| 2026-05-01 10:34 | 39.42023 | 2.54045 | 3831 ft | 260 kts | 312° |
| 2026-05-01 10:35 | 39.44917 | 2.52114 | 3363 ft | 229 kts | 15° |
| 2026-05-01 10:35 | 39.46228 | 2.53131 | 3224 ft | 223 kts | 52° |
| 2026-05-01 10:35 | 39.47036 | 2.54788 | 2955 ft | 212 kts | 60° |
| 2026-05-01 10:35 | 39.47745 | 2.56363 | 2695 ft | 194 kts | 60° |
| 2026-05-01 10:36 | 39.49088 | 2.59215 | 2193 ft | 182 kts | 59° |
| 2026-05-01 10:36 | 39.49722 | 2.60550 | 1949 ft | 167 kts | 59° |
| 2026-05-01 10:36 | 39.50293 | 2.61750 | 1760 ft | 149 kts | 59° |
| 2026-05-01 10:37 | 39.50818 | 2.62855 | 1565 ft | 141 kts | 59° |
| 2026-05-01 10:37 | 39.51825 | 2.64977 | 1185 ft | 137 kts | 60° |
| 2026-05-01 10:37 | 39.52324 | 2.66026 | 979 ft | 137 kts | 59° |
| 2026-05-01 10:38 | 39.52824 | 2.67065 | 773 ft | 136 kts | 59° |
| 2026-05-01 10:38 | 39.53303 | 2.68109 | 600 ft | 134 kts | 60° |
| 2026-05-01 10:38 | 39.53791 | 2.69114 | 405 ft | 132 kts | 59° |
| 2026-05-01 10:38 | 39.54266 | 2.70119 | 234 ft | 130 kts | 60° |
| 2026-05-01 10:39 | 39.54738 | 2.71113 | 66 ft | 130 kts | 59° |
| 2026-05-01 10:39 | 39.55177 | 2.72041 | 30 ft | 101 kts | 58° |
| 2026-05-01 10:39 | 39.55436 | 2.72587 | 30 ft | 39 kts | 58° |
| 2026-05-01 10:39 | 39.55509 | 2.72755 | 30 ft | 11 kts | 87° |
| 2026-05-01 10:40 | 39.55457 | 2.72878 | 30 ft | 19 kts | 124° |
| 2026-05-01 10:40 | 39.55418 | 2.72984 | 30 ft | 9 kts | 86° |
| 2026-05-01 10:40 | 39.55452 | 2.73069 | 30 ft | 15 kts | 57° |
| 2026-05-01 10:40 | 39.55513 | 2.73202 | 30 ft | 20 kts | 59° |
| 2026-05-01 10:41 | 39.55588 | 2.73357 | 30 ft | 21 kts | 58° |
| 2026-05-01 10:41 | 39.55633 | 2.73484 | 30 ft | 11 kts | 103° |
| 2026-05-01 10:41 | 39.55474 | 2.73620 | 30 ft | 18 kts | 149° |
| 2026-05-01 10:42 | 39.55367 | 2.73703 | 30 ft | 18 kts | 149° |
| 2026-05-01 10:42 | 39.55261 | 2.73786 | 30 ft | 18 kts | 148° |
| 2026-05-01 10:42 | 39.55192 | 2.73817 | 30 ft | 7 kts | 207° |
| 2026-05-01 10:42 | 39.55178 | 2.73741 | 30 ft | 12 kts | 291° |
| 2026-05-01 10:43 | 39.55161 | 2.73651 | 30 ft | 10 kts | 240° |
| 2026-05-01 10:43 | 39.55125 | 2.73574 | 30 ft | 10 kts | 239° |
| 2026-05-01 10:43 | 39.55095 | 2.73528 | 30 ft | 4 kts | 199° |
| 2026-05-01 10:43 | 39.55068 | 2.73533 | 30 ft | 4 kts | 166° |
| 2026-05-01 10:44 | 39.55051 | 2.73539 | 30 ft | 0 kts | 163° |
| 2026-05-01 10:44 | 39.55049 | 2.73540 | 30 ft | 0 kts | 163° |